createdAt,value
2018-12-23T00:00:08.269Z,6.70
2018-12-23T00:02:36.609Z,6.70
2018-12-23T00:05:11.502Z,6.70
2018-12-23T00:07:35.666Z,6.70
2018-12-23T00:10:04.395Z,6.70
2018-12-23T00:12:32.773Z,6.70
2018-12-23T00:15:01.188Z,6.70
2018-12-23T00:17:29.563Z,6.70
2018-12-23T00:19:58.013Z,6.70
2018-12-23T00:22:26.366Z,6.80
2018-12-23T00:24:54.784Z,6.80
2018-12-23T00:27:23.157Z,6.80
2018-12-23T00:29:51.521Z,6.80
2018-12-23T00:32:19.927Z,6.80
2018-12-23T00:34:48.300Z,6.90
2018-12-23T00:37:16.693Z,6.90
2018-12-23T00:39:45.068Z,6.90
2018-12-23T00:42:13.435Z,6.90
2018-12-23T00:44:41.928Z,6.90
2018-12-23T00:47:10.292Z,7.00
2018-12-23T00:49:38.704Z,7.00
2018-12-23T00:52:07.151Z,7.00
2018-12-23T00:54:35.549Z,7.00
2018-12-23T00:57:03.877Z,7.10
2018-12-23T00:59:32.264Z,7.10
2018-12-23T01:02:00.632Z,7.10
2018-12-23T01:04:29.000Z,7.10
2018-12-23T01:06:57.387Z,7.10
2018-12-23T01:09:25.862Z,7.10
2018-12-23T01:11:54.222Z,7.20
2018-12-23T01:14:22.625Z,7.10
2018-12-23T01:16:50.960Z,7.20
2018-12-23T01:19:19.339Z,7.20
2018-12-23T01:21:47.714Z,7.20
2018-12-23T01:24:16.091Z,7.20
2018-12-23T01:26:44.467Z,7.20
2018-12-23T01:29:12.827Z,7.20
2018-12-23T01:31:41.297Z,7.20
2018-12-23T01:34:09.654Z,7.20
2018-12-23T01:36:38.024Z,7.20
2018-12-23T01:39:06.918Z,7.10
2018-12-23T01:41:35.824Z,7.10
2018-12-23T01:44:04.284Z,7.10
2018-12-23T01:46:32.659Z,7.10
2018-12-23T01:49:01.016Z,7.10
2018-12-23T01:51:29.383Z,7.20
2018-12-23T01:53:57.738Z,7.20
2018-12-23T01:56:26.111Z,7.20
2018-12-23T01:58:54.467Z,7.20
2018-12-23T02:01:22.844Z,7.20
2018-12-23T02:03:51.209Z,7.20
2018-12-23T02:06:19.696Z,7.30
2018-12-23T02:08:48.068Z,7.30
2018-12-23T02:11:16.420Z,7.30
2018-12-23T02:13:44.783Z,7.30
2018-12-23T02:16:13.128Z,7.30
2018-12-23T02:18:41.504Z,7.30
2018-12-23T02:21:09.864Z,7.30
2018-12-23T02:23:38.220Z,7.30
2018-12-23T02:26:06.601Z,7.30
2018-12-23T02:28:34.968Z,7.30
2018-12-23T02:31:03.339Z,7.30
2018-12-23T02:33:31.716Z,7.30
2018-12-23T02:36:00.081Z,7.40
2018-12-23T02:38:28.441Z,7.40
2018-12-23T02:40:56.801Z,7.40
2018-12-23T02:43:25.168Z,7.40
2018-12-23T02:45:53.528Z,7.40
2018-12-23T02:48:21.875Z,7.40
2018-12-23T02:50:50.252Z,7.40
2018-12-23T02:53:18.608Z,7.40
2018-12-23T02:55:46.981Z,7.40
2018-12-23T02:58:15.331Z,7.40
2018-12-23T03:00:43.696Z,7.40
2018-12-23T03:03:12.044Z,7.40
2018-12-23T03:05:40.404Z,7.40
2018-12-23T03:08:08.773Z,7.50
2018-12-23T03:10:37.126Z,7.40
2018-12-23T03:13:05.568Z,7.40
2018-12-23T03:15:33.929Z,7.40
2018-12-23T03:18:02.278Z,7.40
2018-12-23T03:20:30.657Z,7.40
2018-12-23T03:22:58.997Z,7.40
2018-12-23T03:25:27.382Z,7.40
2018-12-23T03:27:55.739Z,7.50
2018-12-23T03:30:24.125Z,7.50
2018-12-23T03:32:52.614Z,7.50
2018-12-23T03:35:21.138Z,7.50
2018-12-23T03:37:49.520Z,7.50
2018-12-23T03:40:17.868Z,7.50
2018-12-23T03:42:46.220Z,7.50
2018-12-23T03:45:14.568Z,7.50
2018-12-23T03:47:42.921Z,7.50
2018-12-23T03:50:11.237Z,7.50
2018-12-23T03:52:39.627Z,7.50
2018-12-23T03:55:08.176Z,7.50
2018-12-23T03:57:36.519Z,7.50
2018-12-23T04:00:05.320Z,7.60
2018-12-23T04:02:33.655Z,7.60
2018-12-23T04:05:08.400Z,7.60
2018-12-23T04:07:36.795Z,7.60
2018-12-23T04:10:05.396Z,7.60
2018-12-23T04:12:33.756Z,7.60
2018-12-23T04:15:02.127Z,7.60
2018-12-23T04:17:30.472Z,7.60
2018-12-23T04:19:58.819Z,7.60
2018-12-23T04:22:27.191Z,7.60
2018-12-23T04:24:55.539Z,7.60
2018-12-23T04:27:23.920Z,7.60
2018-12-23T04:29:52.279Z,7.60
2018-12-23T04:32:20.639Z,7.60
2018-12-23T04:34:49.011Z,7.60
2018-12-23T04:37:17.443Z,7.60
2018-12-23T04:39:45.776Z,7.60
2018-12-23T04:42:14.151Z,7.60
2018-12-23T04:44:42.491Z,7.60
2018-12-23T04:47:10.848Z,7.60
2018-12-23T04:49:39.197Z,7.60
2018-12-23T04:52:07.566Z,7.60
2018-12-23T04:54:35.943Z,7.60
2018-12-23T04:57:04.407Z,7.60
2018-12-23T04:59:32.769Z,7.60
2018-12-23T05:02:01.137Z,7.60
2018-12-23T05:04:29.480Z,7.60
2018-12-23T05:06:57.841Z,7.60
2018-12-23T05:09:26.195Z,7.60
2018-12-23T05:11:54.561Z,7.60
2018-12-23T05:14:22.896Z,7.60
2018-12-23T05:16:51.256Z,7.60
2018-12-23T05:19:19.599Z,7.60
2018-12-23T05:21:47.958Z,7.60
2018-12-23T05:24:16.734Z,7.60
2018-12-23T05:26:45.125Z,7.60
2018-12-23T05:29:13.583Z,7.60
2018-12-23T05:31:42.039Z,7.60
2018-12-23T05:34:10.397Z,7.60
2018-12-23T05:36:38.734Z,7.60
2018-12-23T05:39:07.725Z,7.50
2018-12-23T05:41:36.084Z,7.60
2018-12-23T05:44:04.453Z,7.60
2018-12-23T05:46:32.775Z,7.50
2018-12-23T05:49:01.180Z,7.50
2018-12-23T05:51:29.499Z,7.50
2018-12-23T05:53:57.871Z,7.60
2018-12-23T05:56:26.216Z,7.50
2018-12-23T05:58:54.571Z,7.50
2018-12-23T06:01:22.966Z,7.50
2018-12-23T06:03:51.317Z,7.60
2018-12-23T06:06:19.664Z,7.60
2018-12-23T06:08:48.023Z,7.50
2018-12-23T06:11:16.392Z,7.50
2018-12-23T06:13:44.752Z,7.50
2018-12-23T06:16:13.145Z,7.50
2018-12-23T06:18:41.471Z,7.50
2018-12-23T06:21:09.828Z,7.50
2018-12-23T06:23:38.172Z,7.50
2018-12-23T06:26:06.564Z,7.50
2018-12-23T06:28:34.906Z,7.50
2018-12-23T06:31:03.277Z,7.50
2018-12-23T06:33:31.629Z,7.50
2018-12-23T06:35:59.995Z,7.50
2018-12-23T06:38:28.317Z,7.50
2018-12-23T06:40:56.678Z,7.50
2018-12-23T06:43:25.006Z,7.50
2018-12-23T06:45:53.393Z,7.50
2018-12-23T06:48:21.744Z,7.50
2018-12-23T06:50:50.115Z,7.60
2018-12-23T06:53:18.463Z,7.60
2018-12-23T06:55:46.859Z,7.50
2018-12-23T06:58:15.219Z,7.50
2018-12-23T07:00:43.560Z,7.50
2018-12-23T07:03:11.889Z,7.50
2018-12-23T07:05:40.244Z,7.50
2018-12-23T07:08:08.574Z,7.50
2018-12-23T07:10:36.929Z,7.50
2018-12-23T07:13:05.271Z,7.50
2018-12-23T07:15:33.665Z,7.50
2018-12-23T07:18:02.011Z,7.50
2018-12-23T07:20:30.357Z,7.50
2018-12-23T07:22:58.695Z,7.50
2018-12-23T07:25:27.170Z,7.50
2018-12-23T07:27:55.521Z,7.50
2018-12-23T07:30:23.882Z,7.50
2018-12-23T07:32:52.253Z,7.50
2018-12-23T07:35:20.595Z,7.40
2018-12-23T07:37:48.988Z,7.40
2018-12-23T07:40:17.340Z,7.40
2018-12-23T07:42:45.715Z,7.40
2018-12-23T07:45:14.056Z,7.40
2018-12-23T07:47:42.419Z,7.40
2018-12-23T07:50:10.887Z,7.40
2018-12-23T07:52:39.502Z,7.40
2018-12-23T07:55:07.825Z,7.40
2018-12-23T07:57:36.176Z,7.50
2018-12-23T08:00:04.766Z,7.50
2018-12-23T08:02:33.133Z,7.50
2018-12-23T08:05:01.481Z,7.50
2018-12-23T08:07:36.160Z,7.50
2018-12-23T08:10:00.219Z,7.50
2018-12-23T08:12:28.598Z,7.50
2018-12-23T08:14:57.018Z,7.50
2018-12-23T08:17:25.867Z,7.50
2018-12-23T08:19:54.330Z,7.50
2018-12-23T08:22:23.141Z,7.60
2018-12-23T08:24:51.763Z,7.60
2018-12-23T08:27:20.156Z,7.60
2018-12-23T08:29:48.936Z,7.60
2018-12-23T08:32:17.321Z,7.60
2018-12-23T08:34:45.663Z,7.60
2018-12-23T08:37:14.027Z,7.60
2018-12-23T08:39:42.369Z,7.60
2018-12-23T08:42:10.723Z,7.60
2018-12-23T08:44:39.175Z,7.60
2018-12-23T08:47:07.575Z,7.60
2018-12-23T08:49:35.927Z,7.60
2018-12-23T08:52:04.768Z,7.60
2018-12-23T08:54:33.242Z,7.60
2018-12-23T08:57:01.598Z,7.60
2018-12-23T08:59:29.967Z,7.60
2018-12-23T09:01:58.327Z,7.60
2018-12-23T09:04:26.647Z,7.60
2018-12-23T09:06:54.995Z,7.60
2018-12-23T09:09:23.447Z,7.60
2018-12-23T09:11:51.803Z,7.70
2018-12-23T09:14:20.147Z,7.70
2018-12-23T09:16:48.522Z,7.70
2018-12-23T09:19:16.871Z,7.70
2018-12-23T09:21:45.188Z,7.70
2018-12-23T09:24:13.527Z,7.70
2018-12-23T09:26:41.859Z,7.70
2018-12-23T09:29:10.258Z,7.80
2018-12-23T09:31:38.605Z,7.80
2018-12-23T09:34:06.976Z,7.80
2018-12-23T09:36:35.359Z,7.80
2018-12-23T09:39:04.699Z,7.80
2018-12-23T09:41:33.095Z,7.90
2018-12-23T09:44:01.453Z,7.90
2018-12-23T09:46:32.807Z,7.90
2018-12-23T09:49:01.203Z,7.90
2018-12-23T09:51:29.775Z,7.90
2018-12-23T09:54:00.018Z,7.90
2018-12-23T09:56:28.641Z,7.90
2018-12-23T09:58:57.010Z,7.90
2018-12-23T10:01:25.678Z,8.00
2018-12-23T10:03:54.519Z,8.00
2018-12-23T10:06:23.214Z,8.00
2018-12-23T10:08:52.053Z,8.00
2018-12-23T10:11:20.647Z,8.00
2018-12-23T10:13:49.000Z,8.00
2018-12-23T10:16:18.384Z,8.00
2018-12-23T10:18:47.440Z,8.00
2018-12-23T10:21:16.038Z,8.00
2018-12-23T10:23:44.504Z,8.00
2018-12-23T10:26:13.225Z,8.00
2018-12-23T10:28:42.198Z,8.00
2018-12-23T10:31:10.706Z,8.00
2018-12-23T10:33:39.043Z,8.00
2018-12-23T10:36:07.797Z,8.00
2018-12-23T10:38:36.770Z,8.00
2018-12-23T10:41:05.460Z,8.00
2018-12-23T10:43:34.171Z,8.00
2018-12-23T10:46:03.263Z,8.00
2018-12-23T10:48:31.610Z,8.00
2018-12-23T10:50:59.959Z,8.00
2018-12-23T10:53:28.568Z,8.10
2018-12-23T10:55:57.129Z,8.00
2018-12-23T10:58:25.868Z,8.00
2018-12-23T11:00:54.289Z,8.10
2018-12-23T11:03:22.720Z,8.10
2018-12-23T11:05:51.059Z,8.10
2018-12-23T11:08:26.732Z,8.10
2018-12-23T11:10:49.875Z,8.10
2018-12-23T11:13:18.307Z,8.10
2018-12-23T11:15:46.747Z,8.10
2018-12-23T11:18:15.097Z,8.10
2018-12-23T11:20:43.440Z,8.20
2018-12-23T11:23:11.848Z,8.10
2018-12-23T11:25:40.183Z,8.20
2018-12-23T11:28:08.640Z,8.20
2018-12-23T11:30:36.993Z,8.20
2018-12-23T11:33:05.359Z,8.20
2018-12-23T11:35:33.676Z,8.10
2018-12-23T11:38:02.027Z,8.10
2018-12-23T11:40:30.432Z,8.10
2018-12-23T11:42:58.791Z,8.00
2018-12-23T11:45:27.150Z,8.00
2018-12-23T11:47:55.511Z,7.90
2018-12-23T11:50:23.851Z,7.90
2018-12-23T11:52:52.210Z,7.80
2018-12-23T11:55:20.539Z,7.80
2018-12-23T11:57:48.884Z,7.70
2018-12-23T12:00:17.247Z,7.70
2018-12-23T12:02:45.600Z,7.70
2018-12-23T12:05:13.946Z,7.60
2018-12-23T12:07:42.331Z,7.70
2018-12-23T12:10:10.691Z,7.60
2018-12-23T12:12:39.083Z,7.70
2018-12-23T12:15:07.513Z,7.70
2018-12-23T12:17:35.836Z,7.70
2018-12-23T12:20:04.431Z,7.70
2018-12-23T12:22:32.816Z,7.70
2018-12-23T12:25:01.159Z,7.70
2018-12-23T12:27:29.512Z,7.70
2018-12-23T12:29:57.826Z,7.70
2018-12-23T12:32:26.215Z,7.70
2018-12-23T12:34:54.544Z,7.70
2018-12-23T12:37:22.895Z,7.70
2018-12-23T12:39:51.255Z,7.70
2018-12-23T12:42:19.641Z,7.70
2018-12-23T12:44:48.040Z,7.70
2018-12-23T12:47:16.371Z,7.70
2018-12-23T12:49:44.780Z,7.70
2018-12-23T12:52:13.131Z,7.70
2018-12-23T12:54:41.588Z,7.70
2018-12-23T12:57:09.923Z,7.70
2018-12-23T12:59:38.395Z,7.70
2018-12-23T13:02:06.814Z,7.70
2018-12-23T13:04:35.219Z,7.70
2018-12-23T13:07:03.689Z,7.60
2018-12-23T13:09:32.379Z,7.60
2018-12-23T13:12:00.927Z,7.60
2018-12-23T13:14:29.268Z,7.60
2018-12-23T13:16:57.608Z,7.60
2018-12-23T13:19:26.063Z,7.60
2018-12-23T13:21:54.434Z,7.60
2018-12-23T13:24:22.783Z,7.60
2018-12-23T13:26:51.147Z,7.60
2018-12-23T13:29:19.483Z,7.60
2018-12-23T13:31:47.831Z,7.60
2018-12-23T13:34:16.211Z,7.60
2018-12-23T13:36:44.695Z,7.50
2018-12-23T13:39:13.039Z,7.50
2018-12-23T13:42:10.875Z,7.50
2018-12-23T13:46:56.692Z,7.50
2018-12-23T13:49:37.772Z,7.50
2018-12-23T13:52:18.040Z,7.30
2018-12-23T13:59:06.273Z,7.30
2018-12-23T14:02:02.748Z,7.30
2018-12-23T14:04:40.437Z,7.10
2018-12-23T14:07:20.710Z,7.10
2018-12-23T14:11:08.487Z,7.10
2018-12-23T14:13:36.820Z,7.10
2018-12-23T14:16:05.265Z,7.10
2018-12-23T14:18:33.640Z,7.10
2018-12-23T14:21:02.000Z,7.10
2018-12-23T14:23:30.343Z,7.20
2018-12-23T14:25:58.747Z,7.20
2018-12-23T14:28:27.330Z,7.20
2018-12-23T14:30:55.783Z,7.20
2018-12-23T14:33:24.180Z,7.20
2018-12-23T14:35:52.527Z,7.20
2018-12-23T14:38:24.803Z,7.30
2018-12-23T14:40:53.409Z,7.20
2018-12-23T14:43:21.896Z,7.20
2018-12-23T14:45:53.961Z,7.20
2018-12-23T14:48:22.421Z,7.20
2018-12-23T14:50:50.893Z,7.20
2018-12-23T14:53:19.564Z,7.30
2018-12-23T14:55:47.912Z,7.30
2018-12-23T14:58:16.313Z,7.30
2018-12-23T15:00:44.664Z,7.30
2018-12-23T15:03:12.990Z,7.30
2018-12-23T15:05:41.349Z,7.30
2018-12-23T15:08:09.679Z,7.30
2018-12-23T15:10:38.055Z,7.30
2018-12-23T15:13:06.441Z,7.30
2018-12-23T15:15:34.791Z,7.30
2018-12-23T15:18:03.249Z,7.30
2018-12-23T15:20:31.763Z,7.30
2018-12-23T15:23:00.116Z,7.40
2018-12-23T15:25:28.576Z,7.30
2018-12-23T15:27:57.018Z,7.40
2018-12-23T15:30:25.400Z,7.30
2018-12-23T15:32:53.884Z,7.40
2018-12-23T15:35:22.237Z,7.30
2018-12-23T15:37:50.591Z,7.40
2018-12-23T15:40:18.943Z,7.40
2018-12-23T15:42:47.276Z,7.40
2018-12-23T15:45:15.608Z,7.40
2018-12-23T15:47:44.181Z,7.30
2018-12-23T15:50:12.638Z,7.30
2018-12-23T15:52:41.035Z,7.30
2018-12-23T15:55:09.360Z,7.30
2018-12-23T15:57:37.759Z,7.30
2018-12-23T16:00:06.231Z,7.30
2018-12-23T16:02:34.598Z,7.30
2018-12-23T16:05:03.096Z,7.30
2018-12-23T16:07:31.486Z,7.30
2018-12-23T16:09:59.895Z,7.30
2018-12-23T16:12:28.322Z,7.30
2018-12-23T16:14:56.664Z,7.30
2018-12-23T16:17:25.018Z,7.30
2018-12-23T16:19:53.326Z,7.30
2018-12-23T16:22:21.755Z,7.30
2018-12-23T16:24:50.108Z,7.30
2018-12-23T16:27:18.493Z,7.30
2018-12-23T16:29:46.864Z,7.30
2018-12-23T16:32:15.361Z,7.30
2018-12-23T16:34:43.724Z,7.30
2018-12-23T16:37:12.111Z,7.30
2018-12-23T16:39:40.445Z,7.30
2018-12-23T16:42:08.771Z,7.30
2018-12-23T16:44:37.184Z,7.30
2018-12-23T16:47:05.511Z,7.30
2018-12-23T16:49:33.861Z,7.30
2018-12-23T16:52:02.295Z,7.30
2018-12-23T16:54:30.729Z,7.30
2018-12-23T16:56:59.201Z,7.30
2018-12-23T16:59:27.569Z,7.30
2018-12-23T17:01:55.960Z,7.30
2018-12-23T17:04:24.363Z,7.30
2018-12-23T17:06:54.163Z,7.30
2018-12-23T17:09:22.659Z,7.30
2018-12-23T17:11:51.011Z,7.30
2018-12-23T17:14:19.367Z,7.30
2018-12-23T17:16:47.739Z,7.30
2018-12-23T17:19:16.121Z,7.30
2018-12-23T17:21:44.507Z,7.30
2018-12-23T17:24:12.831Z,7.30
2018-12-23T17:26:41.226Z,7.30
2018-12-23T17:29:09.573Z,7.30
2018-12-23T17:31:37.960Z,7.30
2018-12-23T17:34:06.311Z,7.30
2018-12-23T17:36:34.663Z,7.30
2018-12-23T17:39:04.436Z,7.30
2018-12-23T17:41:32.789Z,7.30
2018-12-23T17:44:01.128Z,7.30
2018-12-23T17:46:29.511Z,7.30
2018-12-23T17:48:57.885Z,7.30
2018-12-23T17:51:26.531Z,7.20
2018-12-23T17:53:54.962Z,7.20
2018-12-23T17:56:23.324Z,7.20
2018-12-23T17:58:51.736Z,7.20
2018-12-23T18:01:20.140Z,7.20
2018-12-23T18:03:48.533Z,7.20
2018-12-23T18:06:16.902Z,7.20
2018-12-23T18:08:45.279Z,7.20
2018-12-23T18:11:13.715Z,7.20
2018-12-23T18:13:42.059Z,7.20
2018-12-23T18:16:10.514Z,7.20
2018-12-23T18:18:38.867Z,7.20
2018-12-23T18:21:07.259Z,7.20
2018-12-23T18:23:36.496Z,7.10
2018-12-23T18:26:05.070Z,7.20
2018-12-23T18:29:07.481Z,7.10
2018-12-23T18:31:36.730Z,7.10
2018-12-23T18:34:06.037Z,7.10
2018-12-23T18:36:35.281Z,7.10
2018-12-23T18:39:07.015Z,7.10
2018-12-23T18:41:36.261Z,7.10
2018-12-23T18:44:05.490Z,7.10
2018-12-23T18:46:34.727Z,7.10
2018-12-23T18:49:03.972Z,7.10
2018-12-23T18:51:33.225Z,7.10
2018-12-23T18:54:02.448Z,7.10
2018-12-23T18:56:36.704Z,7.10
2018-12-23T18:59:05.957Z,7.10
2018-12-23T19:01:36.729Z,7.00
2018-12-23T19:04:05.933Z,7.00
2018-12-23T19:06:35.153Z,7.10
2018-12-23T19:09:10.843Z,7.00
2018-12-23T19:12:29.412Z,7.10
2018-12-23T19:15:28.267Z,7.10
2018-12-23T19:18:27.663Z,7.10
2018-12-23T19:21:31.913Z,7.10
2018-12-23T19:24:37.354Z,7.10
2018-12-23T19:27:42.767Z,7.10
2018-12-23T19:30:56.190Z,7.10
2018-12-23T19:33:52.719Z,7.10
2018-12-23T19:37:21.097Z,7.10
2018-12-23T19:40:55.581Z,7.10
2018-12-23T19:43:59.413Z,7.10
2018-12-23T19:46:56.471Z,7.00
2018-12-23T19:49:51.698Z,7.00
2018-12-23T19:53:14.347Z,7.00
2018-12-23T19:56:29.525Z,7.00
2018-12-23T19:59:41.594Z,7.00
2018-12-23T20:02:49.040Z,7.00
2018-12-23T20:05:39.360Z,6.90
2018-12-23T20:08:54.687Z,6.90
2018-12-23T20:12:08.390Z,6.90
2018-12-23T20:15:14.411Z,6.90
2018-12-23T20:18:20.617Z,6.80
2018-12-23T20:21:25.827Z,6.80
2018-12-23T20:24:21.120Z,6.80
2018-12-23T20:27:24.416Z,6.80
2018-12-23T20:30:40.720Z,6.70
2018-12-23T20:33:46.025Z,6.70
2018-12-23T20:36:40.682Z,6.70
2018-12-23T20:39:28.872Z,6.70
2018-12-23T20:42:37.987Z,6.70
2018-12-23T20:45:44.132Z,6.70
2018-12-23T20:48:39.596Z,6.70
2018-12-23T20:51:49.747Z,6.70
2018-12-23T20:55:15.281Z,6.60
2018-12-23T20:58:16.781Z,6.60
2018-12-23T21:01:35.224Z,6.60
2018-12-23T21:04:35.765Z,6.60
2018-12-23T21:07:41.187Z,6.60
2018-12-23T21:10:42.080Z,6.60
2018-12-23T21:13:31.580Z,6.60
2018-12-23T21:16:32.372Z,6.60
2018-12-23T21:19:53.716Z,6.60
2018-12-23T21:22:56.516Z,6.60
2018-12-23T21:26:21.991Z,6.60
2018-12-23T21:29:32.718Z,6.50
2018-12-23T21:32:39.144Z,6.60
2018-12-23T21:35:29.526Z,6.50
2018-12-23T21:38:41.729Z,6.50
2018-12-23T21:41:44.461Z,6.50
2018-12-23T21:45:03.556Z,6.50
2018-12-23T21:48:01.046Z,6.50
2018-12-23T21:51:07.629Z,6.60
2018-12-23T21:54:31.693Z,6.60
2018-12-23T21:57:35.660Z,6.60
2018-12-23T22:00:46.805Z,6.60
2018-12-23T22:04:03.365Z,6.60
2018-12-23T22:07:07.172Z,6.60
2018-12-23T22:10:19.916Z,6.60
2018-12-23T22:13:25.650Z,6.60
2018-12-23T22:15:55.156Z,6.60
2018-12-23T22:18:24.971Z,6.60
2018-12-23T22:20:54.207Z,6.50
2018-12-23T22:23:24.008Z,6.50
2018-12-23T22:25:54.456Z,6.50
2018-12-23T22:28:25.304Z,6.50
2018-12-23T22:30:54.541Z,6.50
2018-12-23T22:33:23.780Z,6.50
2018-12-23T22:35:53.028Z,6.50
2018-12-23T22:38:22.291Z,6.50
2018-12-23T22:40:58.644Z,6.50
2018-12-23T22:43:27.868Z,6.50
2018-12-23T22:45:57.088Z,6.50
2018-12-23T22:48:26.317Z,6.50
2018-12-23T22:50:55.572Z,6.50
2018-12-23T22:53:24.872Z,6.50
2018-12-23T22:55:54.168Z,6.50
2018-12-23T22:58:23.378Z,6.50
2018-12-23T23:00:52.680Z,6.40
2018-12-23T23:03:21.891Z,6.40
2018-12-23T23:05:51.141Z,6.40
2018-12-23T23:08:20.432Z,6.40
2018-12-23T23:10:49.692Z,6.30
2018-12-23T23:13:19.040Z,6.30
2018-12-23T23:15:48.293Z,6.30
2018-12-23T23:18:17.608Z,6.30
2018-12-23T23:20:46.848Z,6.30
2018-12-23T23:23:16.048Z,6.20
2018-12-23T23:25:45.258Z,6.20
2018-12-23T23:28:14.518Z,6.20
2018-12-23T23:30:43.748Z,6.20
2018-12-23T23:33:12.944Z,6.20
2018-12-23T23:35:42.176Z,6.20
2018-12-23T23:38:11.408Z,6.20
2018-12-23T23:40:40.672Z,6.10
2018-12-23T23:43:09.896Z,6.20
2018-12-23T23:45:39.115Z,6.10
2018-12-23T23:48:08.305Z,6.10
2018-12-23T23:50:37.524Z,6.10
2018-12-23T23:53:06.729Z,6.10
2018-12-23T23:55:35.951Z,6.10
2018-12-23T23:58:05.184Z,6.10
